Four Nabucco — ZGAP9 — position and weather

sailwx.info

Track history (hours):
 
Tides and Currents Weather Stations Pressure Air Temp Water Temp Dewpoint Dewpoint Depression Visibility Wind Speed Wind Dir Waves Ship Positions

Four Nabucco

Last reported at 2014-Oct-31 12:33 UTC. Time now 2014-Oct-31 20:01 UTC.
Position N 58°04' E 011°47'.

Length 180 m; draft 9.7 m.

Type: Cargo ship. MMSI: 319030700.

Date/timePositionNaut miles runAvg speedWind from/ knotsBaromVisibWave heightAir tempDewpointWater temp
2014-Oct-31 12:33N 58°04' E 011°47'9 8.9
2014-Oct-31 11:33N 57°56' E 011°40'10 9.6
2014-Oct-31 10:33N 57°51' E 011°24'7 7.0
2014-Oct-31 09:32N 57°55' E 011°13'1 0.7
2014-Oct-31 08:32N 57°54' E 011°13'1 0.9
2014-Oct-31 07:32N 57°53' E 011°14'1 1.2
2014-Oct-31 06:26N 57°52' E 011°15'1 1.2
2014-Oct-31 05:32N 57°52' E 011°17'0 0.3
2014-Oct-31 04:33N 57°51' E 011°17'9 8.9
2014-Oct-31 03:33N 57°53' E 011°01'9 8.8
2014-Oct-31 02:33N 57°55' E 010°44'6 6.1
2014-Oct-31 01:34N 57°55' E 010°33'27910.3
2014-Oct-29 22:22N 54°29' E 004°54'1011.8
2014-Oct-29 21:32N 54°20' E 004°45'18811.0
2014-Oct-29 04:23N 51°34' E 002°20'1112.5
2014-Oct-29 03:32N 51°24' E 002°12'1313.1
2014-Oct-29 02:33N 51°13' E 002°02'1313.6
2014-Oct-29 01:34N 51°06' E 001°44'19911.7
2014-Oct-28 08:31N 49°47' W 003°02'1713.5
2014-Oct-28 07:14N 49°38' W 003°25'  
2014-Oct-25 16:19N 39°04' W 009°57'911.8
2014-Oct-25 15:33N 38°55' W 009°57'1211.8
2014-Oct-25 14:32N 38°43' W 009°56'4812.0
2014-Oct-25 10:32N 37°56' W 009°43'1212.0
2014-Oct-25 09:33N 37°44' W 009°40'1111.5
2014-Oct-25 08:33N 37°33' W 009°37'1212.0
2014-Oct-25 07:32N 37°21' W 009°33'8211.6
2014-Oct-25 00:32N 36°24' W 008°20'1412.9
2014-Oct-24 23:27N 36°18' W 008°05'1212.9
2014-Oct-24 22:33N 36°14' W 007°51'12112.1
2014-Oct-24 12:33N 36°00' W 005°22'7 5.2
2014-Oct-24 11:11N 36°02' W 005°14'3 4.0
2014-Oct-24 10:32N 36°02' W 005°17'7 7.3
2014-Oct-24 09:33N 35°55' W 005°19'1 1.0
2014-Oct-24 08:31N 35°55' W 005°20'0 0.0
2014-Oct-24 07:31N 35°55' W 005°20'0 0.0
2014-Oct-24 06:33N 35°55' W 005°20'0 0.0
2014-Oct-24 05:31N 35°55' W 005°20'0 0.2
2014-Oct-24 04:33N 35°55' W 005°20'  
Track history (hours):
 
Tides and Currents Weather Stations Pressure Air Temp Water Temp Dewpoint Dewpoint Depression Visibility Wind Speed Wind Dir Waves Ship Positions

Four Nabucco

Last reported at 2014-Oct-31 12:33 UTC. Time now 2014-Oct-31 20:01 UTC.
Position N 58°04' E 011°47'.

Length 180 m; draft 9.7 m.

Type: Cargo ship. MMSI: 319030700.

Date/timePositionNaut miles runAvg speedWind from/ knotsBaromVisibWave heightAir tempDewpointWater temp
2014-Oct-31 12:33N 58°04' E 011°47'9 8.9
2014-Oct-31 11:33N 57°56' E 011°40'10 9.6
2014-Oct-31 10:33N 57°51' E 011°24'7 7.0
2014-Oct-31 09:32N 57°55' E 011°13'1 0.7
2014-Oct-31 08:32N 57°54' E 011°13'1 0.9
2014-Oct-31 07:32N 57°53' E 011°14'1 1.2
2014-Oct-31 06:26N 57°52' E 011°15'1 1.2
2014-Oct-31 05:32N 57°52' E 011°17'0 0.3
2014-Oct-31 04:33N 57°51' E 011°17'9 8.9
2014-Oct-31 03:33N 57°53' E 011°01'9 8.8
2014-Oct-31 02:33N 57°55' E 010°44'6 6.1
2014-Oct-31 01:34N 57°55' E 010°33'27910.3
2014-Oct-29 22:22N 54°29' E 004°54'1011.8
2014-Oct-29 21:32N 54°20' E 004°45'18811.0
2014-Oct-29 04:23N 51°34' E 002°20'1112.5
2014-Oct-29 03:32N 51°24' E 002°12'1313.1
2014-Oct-29 02:33N 51°13' E 002°02'1313.6
2014-Oct-29 01:34N 51°06' E 001°44'19911.7
2014-Oct-28 08:31N 49°47' W 003°02'1713.5
2014-Oct-28 07:14N 49°38' W 003°25'  
2014-Oct-25 16:19N 39°04' W 009°57'911.8
2014-Oct-25 15:33N 38°55' W 009°57'1211.8
2014-Oct-25 14:32N 38°43' W 009°56'4812.0
2014-Oct-25 10:32N 37°56' W 009°43'1212.0
2014-Oct-25 09:33N 37°44' W 009°40'1111.5
2014-Oct-25 08:33N 37°33' W 009°37'1212.0
2014-Oct-25 07:32N 37°21' W 009°33'8211.6
2014-Oct-25 00:32N 36°24' W 008°20'1412.9
2014-Oct-24 23:27N 36°18' W 008°05'1212.9
2014-Oct-24 22:33N 36°14' W 007°51'12112.1
2014-Oct-24 12:33N 36°00' W 005°22'7 5.2
2014-Oct-24 11:11N 36°02' W 005°14'3 4.0
2014-Oct-24 10:32N 36°02' W 005°17'7 7.3
2014-Oct-24 09:33N 35°55' W 005°19'1 1.0
2014-Oct-24 08:31N 35°55' W 005°20'0 0.0
2014-Oct-24 07:31N 35°55' W 005°20'0 0.0
2014-Oct-24 06:33N 35°55' W 005°20'0 0.0
2014-Oct-24 05:31N 35°55' W 005°20'0 0.2
2014-Oct-24 04:33N 35°55' W 005°20'  

Dump ship's entire track history